createdAt,value
2018-09-14T00:00:13.645Z,0.00
2018-09-14T00:01:13.705Z,0.00
2018-09-14T00:02:13.766Z,0.00
2018-09-14T00:03:13.825Z,0.00
2018-09-14T00:04:13.887Z,0.00
2018-09-14T00:05:13.945Z,0.00
2018-09-14T00:06:14.007Z,0.00
2018-09-14T00:07:14.079Z,0.00
2018-09-14T00:08:14.128Z,0.00
2018-09-14T00:09:14.192Z,0.00
2018-09-14T00:10:14.252Z,0.00
2018-09-14T00:11:14.309Z,0.00
2018-09-14T00:12:14.371Z,0.00
2018-09-14T00:13:14.430Z,0.00
2018-09-14T00:14:14.491Z,0.00
2018-09-14T00:15:14.552Z,0.00
2018-09-14T00:16:14.612Z,0.00
2018-09-14T00:17:14.674Z,0.00
2018-09-14T00:18:14.732Z,0.00
2018-09-14T00:19:14.794Z,0.00
2018-09-14T00:20:14.853Z,0.00
2018-09-14T00:21:14.914Z,0.00
2018-09-14T00:22:14.977Z,0.00
2018-09-14T00:23:15.037Z,0.00
2018-09-14T00:24:15.095Z,0.00
2018-09-14T00:25:15.159Z,0.00
2018-09-14T00:26:15.216Z,0.00
2018-09-14T00:27:15.277Z,0.00
2018-09-14T00:28:15.338Z,0.00
2018-09-14T00:29:15.396Z,0.00
2018-09-14T00:30:15.457Z,0.00
2018-09-14T00:31:15.518Z,0.00
2018-09-14T00:32:15.579Z,0.00
2018-09-14T00:33:15.639Z,0.00
2018-09-14T00:34:15.699Z,0.00
2018-09-14T00:35:15.760Z,0.00
2018-09-14T00:36:15.820Z,0.00
2018-09-14T00:37:15.880Z,0.00
2018-09-14T00:38:15.941Z,0.00
2018-09-14T00:39:16.002Z,0.00
2018-09-14T00:40:16.063Z,0.00
2018-09-14T00:41:16.120Z,0.00
2018-09-14T00:42:16.183Z,0.00
2018-09-14T00:43:16.243Z,0.00
2018-09-14T00:44:16.305Z,0.00
2018-09-14T00:45:16.364Z,0.00
2018-09-14T00:46:16.425Z,0.00
2018-09-14T00:47:16.487Z,0.00
2018-09-14T00:48:16.545Z,0.00
2018-09-14T00:49:16.605Z,0.00
2018-09-14T00:50:16.666Z,0.00
2018-09-14T00:51:16.726Z,0.00
2018-09-14T00:52:16.788Z,0.00
2018-09-14T00:53:16.848Z,0.00
2018-09-14T00:54:16.922Z,0.00
2018-09-14T00:55:16.967Z,0.00
2018-09-14T00:56:17.029Z,0.00
2018-09-14T00:57:17.105Z,0.00
2018-09-14T00:58:17.400Z,0.00
2018-09-14T00:59:17.210Z,0.00
2018-09-14T01:00:17.281Z,0.00
2018-09-14T01:01:17.332Z,0.00
2018-09-14T01:02:17.392Z,0.00
2018-09-14T01:03:17.452Z,0.00
2018-09-14T01:04:17.518Z,0.00
2018-09-14T01:05:17.573Z,0.00
2018-09-14T01:06:17.634Z,0.00
2018-09-14T01:07:17.694Z,0.00
2018-09-14T01:08:17.755Z,0.00
2018-09-14T01:09:17.821Z,0.00
2018-09-14T01:10:17.876Z,0.00
2018-09-14T01:11:17.937Z,0.00
2018-09-14T01:12:17.998Z,0.00
2018-09-14T01:13:18.057Z,0.00
2018-09-14T01:14:18.117Z,0.00
2018-09-14T01:15:18.178Z,0.00
2018-09-14T01:16:18.240Z,0.00
2018-09-14T01:17:18.349Z,0.00
2018-09-14T01:18:18.712Z,0.00
2018-09-14T01:19:18.422Z,0.00
2018-09-14T01:20:18.547Z,0.00
2018-09-14T01:21:18.548Z,0.00
2018-09-14T01:22:18.602Z,0.00
2018-09-14T01:23:18.662Z,0.00
2018-09-14T01:24:18.724Z,0.00
2018-09-14T01:25:18.783Z,0.00
2018-09-14T01:26:18.844Z,0.00
2018-09-14T01:27:18.904Z,0.00
2018-09-14T01:28:18.965Z,0.00
2018-09-14T01:29:19.026Z,0.00
2018-09-14T01:30:19.086Z,0.00
2018-09-14T01:31:19.147Z,0.00
2018-09-14T01:32:19.207Z,0.00
2018-09-14T01:33:19.268Z,0.00
2018-09-14T01:34:19.328Z,0.00
2018-09-14T01:35:19.389Z,0.00
2018-09-14T01:36:19.452Z,0.00
2018-09-14T01:37:19.509Z,0.00
2018-09-14T01:38:19.570Z,0.00
2018-09-14T01:39:19.631Z,0.00
2018-09-14T01:40:19.692Z,0.00
2018-09-14T01:41:19.755Z,0.00
2018-09-14T01:42:19.812Z,0.00
2018-09-14T01:43:19.923Z,0.00
2018-09-14T01:44:19.934Z,0.00
2018-09-14T01:45:19.995Z,0.00
2018-09-14T01:46:20.054Z,0.00
2018-09-14T01:47:20.115Z,0.00
2018-09-14T01:48:20.176Z,0.00
2018-09-14T01:49:20.237Z,0.00
2018-09-14T01:50:20.296Z,0.00
2018-09-14T01:51:20.358Z,0.00
2018-09-14T01:52:20.424Z,0.00
2018-09-14T01:53:20.479Z,0.00
2018-09-14T01:54:20.538Z,0.00
2018-09-14T01:56:18.085Z,0.00
2018-09-14T01:57:18.142Z,0.00
2018-09-14T01:58:18.204Z,0.00
2018-09-14T01:59:18.264Z,0.00
2018-09-14T02:00:18.325Z,0.00
2018-09-14T02:01:18.386Z,0.00
2018-09-14T02:02:18.447Z,0.00
2018-09-14T02:03:18.541Z,0.00
2018-09-14T02:04:18.568Z,0.00
2018-09-14T02:05:18.630Z,0.00
2018-09-14T02:06:18.695Z,0.00
2018-09-14T02:07:18.749Z,0.00
2018-09-14T02:08:18.810Z,0.00
2018-09-14T02:09:18.870Z,0.00
2018-09-14T02:10:18.932Z,0.00
2018-09-14T02:11:18.991Z,0.00
2018-09-14T02:12:19.052Z,0.00
2018-09-14T02:13:19.113Z,0.00
2018-09-14T02:14:19.174Z,0.00
2018-09-14T02:15:19.233Z,0.00
2018-09-14T02:16:19.294Z,0.00
2018-09-14T02:17:19.355Z,0.00
2018-09-14T02:18:19.415Z,0.00
2018-09-14T02:19:19.479Z,0.00
2018-09-14T02:20:19.536Z,0.00
2018-09-14T02:21:19.598Z,0.00
2018-09-14T02:22:19.660Z,0.00
2018-09-14T02:23:19.719Z,0.00
2018-09-14T02:24:19.784Z,0.00
2018-09-14T02:25:19.840Z,0.00
2018-09-14T02:26:19.901Z,0.00
2018-09-14T02:27:19.961Z,0.00
2018-09-14T02:28:20.023Z,0.00
2018-09-14T02:29:20.083Z,0.00
2018-09-14T02:30:20.149Z,0.00
2018-09-14T02:31:20.214Z,0.00
2018-09-14T02:32:20.265Z,0.00
2018-09-14T02:33:20.325Z,0.00
2018-09-14T02:34:20.388Z,0.00
2018-09-14T02:35:20.452Z,0.00
2018-09-14T02:36:20.509Z,0.00
2018-09-14T02:37:20.569Z,0.00
2018-09-14T02:38:20.630Z,0.00
2018-09-14T02:39:20.690Z,0.00
2018-09-14T02:40:20.750Z,0.00
2018-09-14T02:41:20.812Z,0.00
2018-09-14T02:42:20.873Z,0.00
2018-09-14T02:43:20.932Z,0.00
2018-09-14T02:44:20.993Z,0.00
2018-09-14T02:45:21.057Z,0.00
2018-09-14T02:46:21.116Z,0.00
2018-09-14T02:47:21.175Z,0.00
2018-09-14T02:48:21.237Z,0.00
2018-09-14T02:49:21.297Z,0.00
2018-09-14T02:50:21.358Z,0.00
2018-09-14T02:51:21.418Z,0.00
2018-09-14T02:52:21.480Z,0.00
2018-09-14T02:53:21.540Z,0.00
2018-09-14T02:54:21.600Z,0.00
2018-09-14T02:55:21.661Z,0.00
2018-09-14T02:56:21.725Z,0.00
2018-09-14T02:57:21.783Z,0.00
2018-09-14T02:58:21.845Z,0.00
2018-09-14T02:59:21.903Z,0.00
2018-09-14T03:00:21.966Z,0.00
2018-09-14T03:01:22.025Z,0.00
2018-09-14T03:02:22.086Z,0.00
2018-09-14T03:03:22.146Z,0.00
2018-09-14T03:04:22.206Z,0.00
2018-09-14T03:05:22.268Z,0.00
2018-09-14T03:06:22.328Z,0.00
2018-09-14T03:07:22.388Z,0.00
2018-09-14T03:08:22.449Z,0.00
2018-09-14T03:09:22.511Z,0.00
2018-09-14T03:10:22.571Z,0.00
2018-09-14T03:11:22.629Z,0.00
2018-09-14T03:12:22.692Z,0.00
2018-09-14T03:13:22.753Z,0.00
2018-09-14T03:14:23.016Z,0.00
2018-09-14T03:15:22.873Z,0.00
2018-09-14T03:16:22.934Z,0.00
2018-09-14T03:17:22.998Z,0.00
2018-09-14T03:18:23.056Z,0.00
2018-09-14T03:19:23.119Z,0.00
2018-09-14T03:20:23.181Z,0.00
2018-09-14T03:21:23.240Z,0.00
2018-09-14T03:22:23.299Z,0.00
2018-09-14T03:23:23.362Z,0.00
2018-09-14T03:24:23.419Z,0.00
2018-09-14T03:25:23.482Z,0.00
2018-09-14T03:26:23.540Z,0.00
2018-09-14T03:27:23.600Z,0.00
2018-09-14T03:28:23.662Z,0.00
2018-09-14T03:29:23.722Z,0.00
2018-09-14T03:30:23.783Z,0.00
2018-09-14T03:31:23.842Z,0.00
2018-09-14T03:32:23.903Z,0.00
2018-09-14T03:33:23.964Z,0.00
2018-09-14T03:34:24.026Z,0.00
2018-09-14T03:35:24.084Z,0.00
2018-09-14T03:36:24.143Z,0.00
2018-09-14T03:37:24.205Z,0.00
2018-09-14T03:38:24.265Z,0.00
2018-09-14T03:39:24.411Z,0.00
2018-09-14T03:40:24.387Z,0.00
2018-09-14T03:41:24.447Z,0.00
2018-09-14T03:42:24.508Z,0.00
2018-09-14T03:43:24.569Z,0.00
2018-09-14T03:44:24.630Z,0.00
2018-09-14T03:45:24.688Z,0.00
2018-09-14T03:46:24.749Z,0.00
2018-09-14T03:47:24.808Z,0.00
2018-09-14T03:48:24.869Z,0.00
2018-09-14T03:49:24.932Z,0.00
2018-09-14T03:50:24.990Z,0.00
2018-09-14T03:51:25.051Z,0.00
2018-09-14T03:52:25.110Z,0.00
2018-09-14T03:53:25.173Z,0.00
2018-09-14T03:54:25.233Z,0.00
2018-09-14T03:55:25.294Z,0.00
2018-09-14T03:56:25.351Z,0.00
2018-09-14T03:57:25.490Z,0.00
2018-09-14T03:58:25.472Z,0.00
2018-09-14T03:59:25.553Z,0.00
2018-09-14T04:00:25.592Z,0.00
2018-09-14T04:01:25.653Z,0.00
2018-09-14T04:02:25.716Z,0.00
2018-09-14T04:03:25.774Z,0.00
2018-09-14T04:04:25.833Z,0.00
2018-09-14T04:05:25.896Z,0.00
2018-09-14T04:06:25.954Z,0.00
2018-09-14T04:07:26.015Z,0.00
2018-09-14T04:08:26.076Z,0.00
2018-09-14T04:09:26.135Z,0.00
2018-09-14T04:10:26.197Z,0.00
2018-09-14T04:11:26.257Z,0.00
2018-09-14T04:12:26.317Z,0.00
2018-09-14T04:13:26.380Z,0.00
2018-09-14T04:14:26.437Z,0.00
2018-09-14T04:15:26.497Z,0.00
2018-09-14T04:16:26.570Z,0.00
2018-09-14T04:17:26.619Z,0.00
2018-09-14T04:18:26.680Z,0.00
2018-09-14T04:19:26.740Z,0.00
2018-09-14T04:20:26.799Z,0.00
2018-09-14T04:21:26.860Z,0.00
2018-09-14T04:22:26.920Z,0.00
2018-09-14T04:23:27.032Z,0.00
2018-09-14T04:24:27.041Z,0.00
2018-09-14T04:25:27.102Z,0.00
2018-09-14T04:26:27.163Z,0.00
2018-09-14T04:27:27.225Z,0.00
2018-09-14T04:28:27.284Z,0.00
2018-09-14T04:29:27.345Z,0.00
2018-09-14T04:30:27.403Z,0.00
2018-09-14T04:31:27.468Z,0.00
2018-09-14T04:32:27.527Z,0.00
2018-09-14T04:33:27.585Z,0.00
2018-09-14T04:34:27.646Z,0.00
2018-09-14T04:35:27.704Z,0.00
2018-09-14T04:36:27.767Z,0.00
2018-09-14T04:37:28.424Z,0.00
2018-09-14T04:38:27.948Z,0.00
2018-09-14T04:39:27.948Z,0.00
2018-09-14T04:40:28.009Z,0.00
2018-09-14T04:41:28.072Z,0.00
2018-09-14T04:42:28.137Z,0.00
2018-09-14T04:43:28.190Z,0.00
2018-09-14T04:44:28.278Z,0.00
2018-09-14T04:45:28.310Z,0.00
2018-09-14T04:46:28.375Z,0.00
2018-09-14T04:47:28.431Z,0.00
2018-09-14T04:48:28.566Z,0.00
2018-09-14T04:49:28.803Z,0.00
2018-09-14T04:50:28.612Z,0.00
2018-09-14T04:51:28.761Z,0.00
2018-09-14T04:52:28.747Z,0.00
2018-09-14T04:53:28.795Z,0.00
2018-09-14T04:54:28.855Z,0.00
2018-09-14T04:55:28.924Z,0.00
2018-09-14T04:56:28.986Z,0.00
2018-09-14T04:57:29.093Z,0.00
2018-09-14T04:58:29.096Z,0.00
2018-09-14T04:59:29.176Z,5.63
2018-09-14T05:00:29.218Z,5.63
2018-09-14T05:01:29.297Z,5.63
2018-09-14T05:02:29.339Z,5.63
2018-09-14T05:03:29.399Z,5.63
2018-09-14T05:04:29.463Z,5.63
2018-09-14T05:05:29.520Z,11.25
2018-09-14T05:06:29.581Z,11.25
2018-09-14T05:07:29.674Z,11.25
2018-09-14T05:08:29.699Z,11.25
2018-09-14T05:09:29.761Z,16.88
2018-09-14T05:10:29.822Z,16.88
2018-09-14T05:11:29.882Z,16.88
2018-09-14T05:12:29.942Z,16.88
2018-09-14T05:13:30.006Z,22.50
2018-09-14T05:14:30.064Z,22.50
2018-09-14T05:15:30.125Z,22.50
2018-09-14T05:16:30.185Z,22.50
2018-09-14T05:17:30.245Z,28.13
2018-09-14T05:18:30.307Z,28.13
2018-09-14T05:19:30.369Z,28.13
2018-09-14T05:20:30.426Z,33.75
2018-09-14T05:21:30.487Z,33.75
2018-09-14T05:22:30.550Z,33.75
2018-09-14T05:23:30.613Z,33.75
2018-09-14T05:24:30.683Z,39.38
2018-09-14T05:25:30.733Z,39.38
2018-09-14T05:26:30.790Z,45.00
2018-09-14T05:27:30.871Z,45.00
2018-09-14T05:28:30.910Z,45.00
2018-09-14T05:29:30.974Z,50.63
2018-09-14T05:30:31.031Z,50.63
2018-09-14T05:31:31.091Z,50.63
2018-09-14T05:32:31.153Z,56.25
2018-09-14T05:33:31.212Z,56.25
2018-09-14T05:34:31.273Z,61.88
2018-09-14T05:35:31.333Z,61.88
2018-09-14T05:36:31.392Z,67.50
2018-09-14T05:37:31.453Z,67.50
2018-09-14T05:38:31.522Z,73.13
2018-09-14T05:39:31.575Z,73.13
2018-09-14T05:40:31.642Z,73.13
2018-09-14T05:41:31.699Z,78.75
2018-09-14T05:42:31.756Z,78.75
2018-09-14T05:43:31.818Z,84.38
2018-09-14T05:44:31.877Z,84.38
2018-09-14T05:45:31.996Z,90.00
2018-09-14T05:46:31.998Z,90.00
2018-09-14T05:47:32.058Z,95.63
2018-09-14T05:48:32.119Z,95.63
2018-09-14T05:49:32.184Z,101.25
2018-09-14T05:50:32.239Z,101.25
2018-09-14T05:51:32.299Z,106.88
2018-09-14T05:52:32.361Z,106.88
2018-09-14T05:53:32.450Z,112.50
2018-09-14T05:54:32.550Z,112.50
2018-09-14T05:55:32.567Z,118.13
2018-09-14T05:56:32.601Z,118.13
2018-09-14T05:57:32.662Z,123.75
2018-09-14T05:58:32.723Z,129.38
2018-09-14T05:59:32.985Z,129.38
2018-09-14T06:00:32.901Z,135.00
2018-09-14T06:01:32.904Z,135.00
2018-09-14T06:02:32.966Z,140.63
2018-09-14T06:03:33.061Z,140.63
2018-09-14T06:04:33.086Z,140.63
2018-09-14T06:05:33.151Z,140.63
2018-09-14T06:06:33.848Z,146.25
2018-09-14T06:07:33.268Z,146.25
2018-09-14T06:08:33.331Z,146.25
2018-09-14T06:09:33.391Z,151.88
2018-09-14T06:10:33.495Z,151.88
2018-09-14T06:11:33.511Z,146.25
2018-09-14T06:12:33.570Z,146.25
2018-09-14T06:13:33.632Z,146.25
2018-09-14T06:14:33.692Z,151.88
2018-09-14T06:15:33.753Z,151.88
2018-09-14T06:16:33.815Z,157.50
2018-09-14T06:17:33.876Z,157.50
2018-09-14T06:18:33.936Z,163.13
2018-09-14T06:19:33.997Z,163.13
2018-09-14T06:20:34.060Z,163.13
2018-09-14T06:21:34.120Z,163.13
2018-09-14T06:22:34.269Z,163.13
2018-09-14T06:23:34.239Z,168.75
2018-09-14T06:24:34.301Z,168.75
2018-09-14T06:25:34.361Z,168.75
2018-09-14T06:26:34.422Z,168.75
2018-09-14T06:27:34.481Z,174.38
2018-09-14T06:28:34.542Z,180.00
2018-09-14T06:29:34.605Z,185.63
2018-09-14T06:30:34.665Z,191.25
2018-09-14T06:31:34.725Z,196.88
2018-09-14T06:32:34.788Z,208.13
2018-09-14T06:33:34.847Z,219.38
2018-09-14T06:34:34.907Z,225.00
2018-09-14T06:35:34.994Z,230.63
2018-09-14T06:36:35.029Z,236.25
2018-09-14T06:37:35.092Z,241.88
2018-09-14T06:38:35.152Z,241.88
2018-09-14T06:39:35.275Z,247.50
2018-09-14T06:40:35.274Z,253.13
2018-09-14T06:41:35.336Z,253.13
2018-09-14T06:42:35.395Z,253.13
2018-09-14T06:43:35.457Z,258.75
2018-09-14T06:44:35.519Z,258.75
2018-09-14T06:45:35.583Z,258.75
2018-09-14T06:46:35.642Z,270.00
2018-09-14T06:47:35.702Z,275.63
2018-09-14T06:48:35.763Z,281.25
2018-09-14T06:49:35.825Z,292.50
2018-09-14T06:50:35.887Z,286.88
2018-09-14T06:51:36.654Z,286.88
2018-09-14T06:52:36.010Z,292.50
2018-09-14T06:53:36.071Z,292.50
2018-09-14T06:54:36.132Z,292.50
2018-09-14T06:55:36.193Z,303.75
2018-09-14T06:56:36.255Z,315.00
2018-09-14T06:57:36.316Z,315.00
2018-09-14T06:58:36.377Z,315.00
2018-09-14T06:59:36.439Z,315.00
2018-09-14T07:00:36.502Z,320.63
2018-09-14T07:01:36.563Z,326.25
2018-09-14T07:02:36.624Z,331.88
2018-09-14T07:03:36.686Z,343.13
2018-09-14T07:04:36.748Z,343.13
2018-09-14T07:05:36.811Z,343.13
2018-09-14T07:06:36.871Z,337.50
2018-09-14T07:07:36.932Z,337.50
2018-09-14T07:08:36.997Z,337.50
2018-09-14T07:09:37.059Z,337.50
2018-09-14T07:10:37.119Z,337.50
2018-09-14T07:11:37.217Z,337.50
2018-09-14T07:12:37.844Z,348.75
2018-09-14T07:13:37.306Z,348.75
2018-09-14T07:14:37.367Z,348.75
2018-09-14T07:15:37.430Z,348.75
2018-09-14T07:16:38.017Z,348.75
2018-09-14T07:17:38.099Z,348.75
2018-09-14T07:18:37.614Z,354.38
2018-09-14T07:20:38.341Z,376.88
2018-09-14T07:21:37.844Z,382.50
2018-09-14T07:22:37.862Z,388.13
2018-09-14T07:23:37.923Z,388.13
2018-09-14T07:24:38.191Z,393.75
2018-09-14T07:25:38.070Z,393.75
2018-09-14T07:26:38.132Z,393.75
2018-09-14T07:27:38.212Z,393.75
2018-09-14T07:28:38.277Z,399.38
2018-09-14T07:29:38.298Z,405.00
2018-09-14T07:30:38.361Z,410.63
2018-09-14T07:31:38.523Z,410.63
2018-09-14T07:32:38.490Z,410.63
2018-09-14T07:33:38.549Z,416.25
2018-09-14T07:34:38.612Z,433.13
2018-09-14T07:35:38.674Z,444.38
2018-09-14T07:36:38.781Z,450.00
2018-09-14T07:37:38.799Z,444.38
2018-09-14T07:38:38.863Z,450.00
2018-09-14T07:39:38.925Z,450.00
2018-09-14T07:40:38.989Z,461.25
2018-09-14T07:41:39.052Z,466.88
2018-09-14T07:42:39.256Z,472.50
2018-09-14T07:43:39.177Z,483.75
2018-09-14T07:44:39.245Z,489.38
2018-09-14T07:45:39.304Z,500.63
2018-09-14T07:46:39.368Z,506.25
2018-09-14T07:47:39.430Z,506.25
2018-09-14T07:48:39.494Z,495.00
2018-09-14T07:49:39.559Z,500.63
2018-09-14T07:50:39.622Z,511.88
2018-09-14T07:51:39.686Z,511.88
2018-09-14T07:52:39.748Z,517.50
2018-09-14T07:53:39.811Z,545.63
2018-09-14T07:54:39.876Z,562.50
2018-09-14T07:55:39.937Z,556.88
2018-09-14T07:56:40.009Z,545.63
2018-09-14T07:57:40.066Z,545.63
2018-09-14T07:58:40.129Z,545.63
2018-09-14T08:01:07.833Z,517.50
2018-09-14T08:02:07.829Z,495.00
2018-09-14T08:03:07.895Z,483.75
2018-09-14T08:04:07.958Z,461.25
2018-09-14T08:05:08.023Z,450.00
2018-09-14T08:06:08.102Z,455.63
2018-09-14T08:07:08.152Z,444.38
2018-09-14T08:08:08.216Z,466.88
2018-09-14T08:09:08.726Z,495.00
2018-09-14T08:10:08.341Z,523.13
2018-09-14T08:11:08.406Z,534.38
2018-09-14T08:12:08.472Z,540.00
2018-09-14T08:13:08.544Z,551.25
2018-09-14T08:14:08.598Z,568.13
2018-09-14T08:15:08.662Z,568.13
2018-09-14T08:16:08.727Z,573.75
2018-09-14T08:17:08.791Z,579.38
2018-09-14T08:18:09.224Z,568.13
2018-09-14T08:19:08.919Z,562.50
2018-09-14T08:20:09.008Z,562.50
2018-09-14T08:21:09.065Z,562.50
2018-09-14T08:22:09.111Z,568.13
2018-09-14T08:23:09.175Z,585.00
2018-09-14T08:24:09.309Z,596.25
2018-09-14T08:25:09.306Z,613.13
2018-09-14T08:26:09.368Z,618.75
2018-09-14T08:27:09.445Z,630.00
2018-09-14T08:28:09.532Z,641.25
2018-09-14T08:29:10.181Z,635.63
2018-09-14T08:30:10.292Z,635.63
2018-09-14T08:31:10.359Z,652.50
2018-09-14T08:32:10.498Z,675.00
2018-09-14T08:33:09.852Z,691.88
2018-09-14T08:34:09.919Z,697.50
2018-09-14T08:35:09.999Z,697.50
2018-09-14T08:36:10.067Z,697.50
2018-09-14T08:37:10.113Z,697.50
2018-09-14T08:38:10.144Z,697.50
2018-09-14T08:39:10.236Z,697.50
2018-09-14T08:40:10.305Z,686.25
2018-09-14T08:41:10.692Z,691.88
2018-09-14T08:42:10.403Z,697.50
2018-09-14T08:43:10.469Z,697.50
2018-09-14T08:44:10.533Z,697.50
2018-09-14T08:45:10.602Z,703.13
2018-09-14T08:46:10.663Z,720.00
2018-09-14T08:47:10.879Z,731.25
2018-09-14T08:48:10.794Z,742.50
2018-09-14T08:49:10.858Z,753.75
2018-09-14T08:50:10.923Z,753.75
2018-09-14T08:51:10.988Z,759.38
2018-09-14T08:52:11.054Z,759.38
2018-09-14T08:53:11.119Z,770.63
2018-09-14T08:54:11.182Z,787.50
2018-09-14T08:55:11.303Z,804.38
2018-09-14T08:56:11.315Z,798.75
2018-09-14T08:57:11.383Z,798.75
2018-09-14T08:58:11.539Z,798.75
2018-09-14T08:59:11.527Z,793.13
2018-09-14T09:00:11.576Z,793.13
2018-09-14T09:01:11.654Z,793.13
2018-09-14T09:02:11.706Z,787.50
2018-09-14T09:03:11.799Z,776.25
2018-09-14T09:04:11.837Z,770.63
2018-09-14T09:05:11.902Z,776.25
2018-09-14T09:06:11.968Z,776.25
2018-09-14T09:07:12.063Z,765.00
2018-09-14T09:08:12.100Z,759.38
2018-09-14T09:09:12.204Z,753.75
2018-09-14T09:10:12.230Z,748.13
2018-09-14T09:11:12.296Z,748.13
2018-09-14T09:12:12.363Z,748.13
2018-09-14T09:13:12.429Z,736.88
2018-09-14T09:14:12.494Z,731.25
2018-09-14T09:15:12.563Z,720.00
2018-09-14T09:16:12.626Z,714.38
2018-09-14T09:17:13.334Z,703.13
2018-09-14T09:18:12.759Z,691.88
2018-09-14T09:19:12.843Z,686.25
2018-09-14T09:20:12.890Z,675.00
2018-09-14T09:21:12.972Z,680.63
2018-09-14T09:22:13.023Z,691.88
2018-09-14T09:23:13.501Z,703.13
2018-09-14T09:24:13.162Z,703.13
2018-09-14T09:25:13.221Z,708.75
2018-09-14T09:26:13.303Z,697.50
2018-09-14T09:27:13.352Z,708.75
2018-09-14T09:28:13.418Z,725.63
2018-09-14T09:29:13.540Z,748.13
2018-09-14T09:30:13.549Z,770.63
2018-09-14T09:31:13.617Z,793.13
2018-09-14T09:32:13.764Z,804.38
2018-09-14T09:33:13.777Z,810.00
2018-09-14T09:34:13.812Z,843.75
2018-09-14T09:35:13.880Z,860.63
2018-09-14T09:36:13.946Z,849.38
2018-09-14T09:37:14.013Z,826.88
2018-09-14T09:38:14.077Z,821.25
2018-09-14T09:39:14.143Z,804.38
2018-09-14T09:40:14.211Z,804.38
2018-09-14T09:41:14.310Z,815.63
2018-09-14T09:42:14.342Z,826.88
2018-09-14T09:43:14.770Z,843.75
2018-09-14T09:44:14.476Z,883.13
2018-09-14T09:45:14.542Z,900.00
2018-09-14T09:46:14.607Z,916.88
2018-09-14T09:47:14.675Z,928.13
2018-09-14T09:48:14.741Z,928.13
2018-09-14T09:49:14.807Z,916.88
2018-09-14T09:50:14.874Z,928.13
2018-09-14T09:51:15.030Z,933.75
2018-09-14T09:52:15.007Z,905.63
2018-09-14T09:53:15.074Z,894.38
2018-09-14T09:54:15.140Z,883.13
2018-09-14T09:55:15.207Z,894.38
2018-09-14T09:56:15.275Z,928.13
2018-09-14T09:57:15.341Z,967.50
2018-09-14T09:58:15.407Z,984.38
2018-09-14T09:59:15.475Z,978.75
2018-09-14T10:00:15.541Z,973.13
2018-09-14T10:01:15.609Z,990.00
2018-09-14T10:02:15.989Z,950.63
2018-09-14T10:03:15.745Z,950.63
2018-09-14T10:04:15.809Z,978.75
2018-09-14T10:05:15.884Z,1006.88
2018-09-14T10:06:15.943Z,995.63
2018-09-14T10:07:16.010Z,995.63
2018-09-14T10:08:16.077Z,1012.50
2018-09-14T10:09:16.144Z,1023.75
2018-09-14T10:10:16.214Z,1046.25
2018-09-14T10:11:16.278Z,1029.38
2018-09-14T10:12:16.347Z,1023.75
2018-09-14T10:13:16.420Z,967.50
2018-09-14T10:14:16.546Z,967.50
2018-09-14T10:15:16.548Z,961.88
2018-09-14T10:16:16.615Z,950.63
2018-09-14T10:17:16.681Z,995.63
2018-09-14T10:18:16.745Z,1029.38
2018-09-14T10:19:16.816Z,1046.25
2018-09-14T10:20:16.884Z,1051.88
2018-09-14T10:21:17.051Z,1046.25
2018-09-14T10:22:17.015Z,1046.25
2018-09-14T10:23:17.084Z,1063.13
2018-09-14T10:24:17.151Z,1108.13
2018-09-14T10:25:17.217Z,1147.50
2018-09-14T10:26:17.283Z,1153.13
2018-09-14T10:27:17.350Z,1164.38
2018-09-14T10:28:17.427Z,1141.88
2018-09-14T10:29:17.485Z,1141.88
2018-09-14T10:30:17.551Z,1136.25
2018-09-14T10:31:17.619Z,1119.38
2018-09-14T10:32:17.685Z,1130.63
2018-09-14T10:33:17.755Z,1141.88
2018-09-14T10:34:17.819Z,1147.50
2018-09-14T10:35:17.887Z,1130.63
2018-09-14T10:36:17.956Z,1113.75
2018-09-14T10:37:18.024Z,1102.50
2018-09-14T10:38:18.090Z,1096.88
2018-09-14T10:39:18.158Z,1108.13
2018-09-14T10:40:18.237Z,1108.13
2018-09-14T10:41:18.294Z,1113.75
2018-09-14T10:42:18.359Z,1141.88
2018-09-14T10:43:18.427Z,1164.38
2018-09-14T10:44:18.496Z,1164.38
2018-09-14T10:45:18.647Z,1119.38
2018-09-14T10:46:18.630Z,1102.50
2018-09-14T10:47:18.697Z,1102.50
2018-09-14T10:48:18.770Z,1085.63
2018-09-14T10:49:18.833Z,1080.00
2018-09-14T10:50:18.900Z,1096.88
2018-09-14T10:51:18.969Z,1108.13
2018-09-14T10:52:19.059Z,1130.63
2018-09-14T10:53:19.137Z,1147.50
2018-09-14T10:54:19.172Z,1147.50
2018-09-14T10:55:19.271Z,1265.63
2018-09-14T10:56:19.308Z,1350.00
2018-09-14T10:57:19.376Z,1620.00
2018-09-14T10:58:19.443Z,1800.00
2018-09-14T10:59:19.511Z,1468.13
2018-09-14T11:00:19.580Z,1361.25
2018-09-14T11:01:19.649Z,1350.00
2018-09-14T11:02:19.715Z,1276.88
2018-09-14T11:03:19.785Z,1243.13
2018-09-14T11:04:19.886Z,1220.63
2018-09-14T11:05:19.923Z,1237.50
2018-09-14T11:06:19.991Z,1231.88
2018-09-14T11:07:20.063Z,1254.38
2018-09-14T11:08:20.128Z,1276.88
2018-09-14T11:09:20.198Z,1288.13
2018-09-14T11:10:20.266Z,1321.88
2018-09-14T11:11:20.343Z,1288.13
2018-09-14T11:12:20.403Z,1243.13
2018-09-14T11:13:20.473Z,1209.38
2018-09-14T11:14:20.541Z,1181.25
2018-09-14T11:15:20.610Z,1147.50
2018-09-14T11:16:20.680Z,1113.75
2018-09-14T11:17:20.748Z,1108.13
2018-09-14T11:18:20.818Z,1068.75
2018-09-14T11:19:20.885Z,1051.88
2018-09-14T11:20:20.955Z,1023.75
2018-09-14T11:21:21.025Z,1006.88
2018-09-14T11:22:21.093Z,1006.88
2018-09-14T11:23:21.161Z,984.38
2018-09-14T11:24:21.230Z,967.50
2018-09-14T11:25:21.308Z,939.38
2018-09-14T11:26:21.367Z,911.25
2018-09-14T11:27:21.435Z,883.13
2018-09-14T11:28:21.504Z,883.13
2018-09-14T11:29:21.572Z,888.75
2018-09-14T11:30:21.640Z,900.00
2018-09-14T11:31:21.709Z,894.38
2018-09-14T11:32:21.833Z,916.88
2018-09-14T11:33:21.846Z,928.13
2018-09-14T11:34:21.912Z,945.00
2018-09-14T11:35:21.982Z,978.75
2018-09-14T11:36:22.051Z,1001.25
2018-09-14T11:37:22.152Z,1018.13
2018-09-14T11:38:22.556Z,1029.38
2018-09-14T11:39:22.253Z,990.00
2018-09-14T11:40:22.323Z,978.75
2018-09-14T11:41:22.389Z,1006.88
2018-09-14T11:42:22.457Z,1102.50
2018-09-14T11:43:22.525Z,1147.50
2018-09-14T11:44:22.600Z,1226.25
2018-09-14T11:45:22.767Z,1321.88
2018-09-14T11:46:22.733Z,1147.50
2018-09-14T11:47:22.797Z,1164.38
2018-09-14T11:48:22.866Z,1338.75
2018-09-14T11:49:22.934Z,2739.38
2018-09-14T11:50:23.028Z,2446.88
2018-09-14T11:51:23.070Z,1040.63
2018-09-14T11:52:23.140Z,916.88
2018-09-14T11:53:23.210Z,855.00
2018-09-14T11:54:23.378Z,821.25
2018-09-14T11:55:23.362Z,866.25
2018-09-14T11:56:23.443Z,1276.88
2018-09-14T11:57:23.481Z,714.38
2018-09-14T11:58:23.614Z,860.63
2018-09-14T11:59:23.617Z,860.63
2018-09-14T12:00:23.685Z,703.13
2018-09-14T12:01:23.786Z,669.38
2018-09-14T12:02:23.822Z,663.75
2018-09-14T12:03:23.890Z,691.88
2018-09-14T12:04:24.007Z,714.38
2018-09-14T12:05:24.029Z,720.00
2018-09-14T12:06:24.093Z,720.00
2018-09-14T12:07:24.161Z,697.50
2018-09-14T12:08:24.228Z,680.63
2018-09-14T12:09:24.297Z,652.50
2018-09-14T12:10:24.364Z,680.63
2018-09-14T12:11:24.434Z,725.63
2018-09-14T12:12:24.499Z,753.75
2018-09-14T12:13:24.566Z,770.63
2018-09-14T12:14:24.634Z,776.25
2018-09-14T12:15:24.701Z,793.13
2018-09-14T12:16:24.769Z,821.25
2018-09-14T12:17:24.836Z,860.63
2018-09-14T12:18:24.901Z,911.25
2018-09-14T12:19:24.969Z,1012.50
2018-09-14T12:20:25.039Z,1091.25
2018-09-14T12:21:25.104Z,1074.38
2018-09-14T12:22:25.195Z,1068.75
2018-09-14T12:23:25.238Z,1080.00
2018-09-14T12:24:25.305Z,1130.63
2018-09-14T12:25:25.372Z,1366.88
2018-09-14T12:26:25.440Z,1777.50
2018-09-14T12:27:25.506Z,1186.88
2018-09-14T12:28:25.652Z,1198.13
2018-09-14T12:29:25.642Z,1231.88
2018-09-14T12:30:25.709Z,1400.63
2018-09-14T12:31:25.775Z,1676.25
2018-09-14T12:32:25.845Z,1366.88
2018-09-14T12:33:25.912Z,1434.38
2018-09-14T12:34:26.002Z,1726.88
2018-09-14T12:35:26.047Z,1305.00
2018-09-14T12:36:26.115Z,1366.88
2018-09-14T12:37:26.186Z,1693.13
2018-09-14T12:38:26.249Z,3009.38
2018-09-14T12:39:26.317Z,3166.88
2018-09-14T12:40:26.385Z,2435.63
2018-09-14T12:41:26.453Z,3161.25
2018-09-14T12:42:26.520Z,1670.63
2018-09-14T12:43:26.592Z,1704.38
2018-09-14T12:44:26.660Z,1417.50
2018-09-14T12:45:26.727Z,1850.63
2018-09-14T12:46:26.795Z,1220.63
2018-09-14T12:47:26.863Z,1153.13
2018-09-14T12:48:26.932Z,1642.50
2018-09-14T12:49:27.003Z,832.50